sensor_id;sensor_type;location;lat;lon;timestamp;P1;durP1;ratioP1;P2;durP2;ratioP2
30571;SDS011;17348;50.948;10.696;2023-12-14T00:00:19;7.50;;;2.80;;
30571;SDS011;17348;50.948;10.696;2023-12-14T00:03:21;7.10;;;2.87;;
30571;SDS011;17348;50.948;10.696;2023-12-14T00:06:23;3.87;;;2.47;;
30571;SDS011;17348;50.948;10.696;2023-12-14T00:09:26;7.33;;;2.60;;
30571;SDS011;17348;50.948;10.696;2023-12-14T00:12:28;4.27;;;1.80;;
30571;SDS011;17348;50.948;10.696;2023-12-14T00:15:32;3.57;;;2.23;;
30571;SDS011;17348;50.948;10.696;2023-12-14T00:18:34;3.23;;;1.87;;
30571;SDS011;17348;50.948;10.696;2023-12-14T00:21:37;2.90;;;1.70;;
30571;SDS011;17348;50.948;10.696;2023-12-14T00:24:39;5.10;;;1.60;;
30571;SDS011;17348;50.948;10.696;2023-12-14T00:27:42;3.60;;;1.77;;
30571;SDS011;17348;50.948;10.696;2023-12-14T00:30:46;4.17;;;1.60;;
30571;SDS011;17348;50.948;10.696;2023-12-14T00:33:48;4.07;;;1.57;;
30571;SDS011;17348;50.948;10.696;2023-12-14T00:36:50;3.23;;;1.40;;
30571;SDS011;17348;50.948;10.696;2023-12-14T00:39:53;3.10;;;1.33;;
30571;SDS011;17348;50.948;10.696;2023-12-14T00:42:55;5.43;;;1.67;;
30571;SDS011;17348;50.948;10.696;2023-12-14T00:45:59;3.53;;;1.67;;
30571;SDS011;17348;50.948;10.696;2023-12-14T00:49:01;4.37;;;1.80;;
30571;SDS011;17348;50.948;10.696;2023-12-14T00:52:04;7.00;;;2.07;;
30571;SDS011;17348;50.948;10.696;2023-12-14T00:55:07;4.97;;;1.70;;
30571;SDS011;17348;50.948;10.696;2023-12-14T00:58:09;6.20;;;2.03;;
30571;SDS011;17348;50.948;10.696;2023-12-14T01:01:14;4.77;;;1.97;;
30571;SDS011;17348;50.948;10.696;2023-12-14T01:04:17;7.93;;;2.13;;
30571;SDS011;17348;50.948;10.696;2023-12-14T01:07:19;3.63;;;1.40;;
30571;SDS011;17348;50.948;10.696;2023-12-14T01:10:21;7.17;;;2.33;;
30571;SDS011;17348;50.948;10.696;2023-12-14T01:13:24;3.93;;;1.73;;
30571;SDS011;17348;50.948;10.696;2023-12-14T01:16:27;4.13;;;2.23;;
30571;SDS011;17348;50.948;10.696;2023-12-14T01:19:29;5.67;;;2.87;;
30571;SDS011;17348;50.948;10.696;2023-12-14T01:22:32;7.03;;;2.33;;
30571;SDS011;17348;50.948;10.696;2023-12-14T01:25:34;5.07;;;2.63;;
30571;SDS011;17348;50.948;10.696;2023-12-14T01:28:37;7.37;;;3.60;;
30571;SDS011;17348;50.948;10.696;2023-12-14T01:31:40;7.97;;;3.47;;
30571;SDS011;17348;50.948;10.696;2023-12-14T01:34:43;6.83;;;3.90;;
30571;SDS011;17348;50.948;10.696;2023-12-14T01:37:45;7.70;;;3.30;;
30571;SDS011;17348;50.948;10.696;2023-12-14T01:40:47;10.97;;;3.33;;
30571;SDS011;17348;50.948;10.696;2023-12-14T01:43:50;9.40;;;4.03;;
30571;SDS011;17348;50.948;10.696;2023-12-14T01:46:54;7.87;;;3.73;;
30571;SDS011;17348;50.948;10.696;2023-12-14T01:49:56;7.50;;;3.70;;
30571;SDS011;17348;50.948;10.696;2023-12-14T01:52:58;12.87;;;3.27;;
30571;SDS011;17348;50.948;10.696;2023-12-14T01:56:01;8.10;;;3.03;;
30571;SDS011;17348;50.948;10.696;2023-12-14T01:59:03;8.93;;;3.63;;
30571;SDS011;17348;50.948;10.696;2023-12-14T02:02:07;10.63;;;3.90;;
30571;SDS011;17348;50.948;10.696;2023-12-14T02:05:09;8.20;;;4.17;;
30571;SDS011;17348;50.948;10.696;2023-12-14T02:08:11;8.67;;;4.63;;
30571;SDS011;17348;50.948;10.696;2023-12-14T02:11:14;9.07;;;4.20;;
30571;SDS011;17348;50.948;10.696;2023-12-14T02:14:16;8.97;;;5.00;;
30571;SDS011;17348;50.948;10.696;2023-12-14T02:17:20;9.70;;;4.33;;
30571;SDS011;17348;50.948;10.696;2023-12-14T02:20:22;11.17;;;4.63;;
30571;SDS011;17348;50.948;10.696;2023-12-14T02:23:25;9.47;;;4.43;;
30571;SDS011;17348;50.948;10.696;2023-12-14T02:26:28;14.27;;;5.30;;
30571;SDS011;17348;50.948;10.696;2023-12-14T02:29:30;10.70;;;4.83;;
30571;SDS011;17348;50.948;10.696;2023-12-14T02:32:32;7.87;;;3.83;;
30571;SDS011;17348;50.948;10.696;2023-12-14T02:35:35;8.00;;;4.50;;
30571;SDS011;17348;50.948;10.696;2023-12-14T02:38:38;8.87;;;4.60;;
30571;SDS011;17348;50.948;10.696;2023-12-14T02:41:40;13.23;;;5.90;;
30571;SDS011;17348;50.948;10.696;2023-12-14T02:44:43;10.53;;;5.47;;
30571;SDS011;17348;50.948;10.696;2023-12-14T02:47:45;10.33;;;5.37;;
30571;SDS011;17348;50.948;10.696;2023-12-14T02:50:49;8.93;;;4.70;;
30571;SDS011;17348;50.948;10.696;2023-12-14T02:53:52;13.03;;;5.70;;
30571;SDS011;17348;50.948;10.696;2023-12-14T02:56:57;9.23;;;4.30;;
30571;SDS011;17348;50.948;10.696;2023-12-14T03:00:00;9.20;;;5.37;;
30571;SDS011;17348;50.948;10.696;2023-12-14T03:03:03;11.67;;;5.83;;
30571;SDS011;17348;50.948;10.696;2023-12-14T03:06:05;15.00;;;6.27;;
30571;SDS011;17348;50.948;10.696;2023-12-14T03:09:09;17.73;;;7.27;;
30571;SDS011;17348;50.948;10.696;2023-12-14T03:12:11;16.67;;;7.17;;
30571;SDS011;17348;50.948;10.696;2023-12-14T03:15:14;13.87;;;6.90;;
30571;SDS011;17348;50.948;10.696;2023-12-14T03:18:19;17.93;;;8.07;;
30571;SDS011;17348;50.948;10.696;2023-12-14T03:21:22;19.40;;;8.87;;
30571;SDS011;17348;50.948;10.696;2023-12-14T03:24:25;18.57;;;8.10;;
30571;SDS011;17348;50.948;10.696;2023-12-14T03:27:28;20.53;;;7.63;;
30571;SDS011;17348;50.948;10.696;2023-12-14T03:30:30;16.47;;;8.80;;
30571;SDS011;17348;50.948;10.696;2023-12-14T03:33:32;15.27;;;7.77;;
30571;SDS011;17348;50.948;10.696;2023-12-14T03:36:34;20.47;;;8.63;;
30571;SDS011;17348;50.948;10.696;2023-12-14T03:39:38;17.67;;;7.23;;
30571;SDS011;17348;50.948;10.696;2023-12-14T03:42:41;12.83;;;6.43;;
30571;SDS011;17348;50.948;10.696;2023-12-14T03:45:43;13.17;;;5.73;;
30571;SDS011;17348;50.948;10.696;2023-12-14T03:48:45;14.20;;;5.87;;
30571;SDS011;17348;50.948;10.696;2023-12-14T03:51:47;11.23;;;5.77;;
30571;SDS011;17348;50.948;10.696;2023-12-14T03:54:51;12.87;;;5.97;;
30571;SDS011;17348;50.948;10.696;2023-12-14T03:57:53;15.03;;;6.03;;
30571;SDS011;17348;50.948;10.696;2023-12-14T04:00:56;15.70;;;6.57;;
30571;SDS011;17348;50.948;10.696;2023-12-14T04:03:58;11.63;;;5.77;;
30571;SDS011;17348;50.948;10.696;2023-12-14T04:07:00;17.60;;;7.27;;
30571;SDS011;17348;50.948;10.696;2023-12-14T04:10:04;12.13;;;6.00;;
30571;SDS011;17348;50.948;10.696;2023-12-14T04:13:07;15.30;;;7.97;;
30571;SDS011;17348;50.948;10.696;2023-12-14T04:16:10;22.00;;;7.93;;
30571;SDS011;17348;50.948;10.696;2023-12-14T04:19:12;19.97;;;8.33;;
30571;SDS011;17348;50.948;10.696;2023-12-14T04:22:15;17.87;;;8.03;;
30571;SDS011;17348;50.948;10.696;2023-12-14T04:25:18;15.30;;;7.90;;
30571;SDS011;17348;50.948;10.696;2023-12-14T04:28:20;24.40;;;9.67;;
30571;SDS011;17348;50.948;10.696;2023-12-14T04:31:23;18.20;;;8.97;;
30571;SDS011;17348;50.948;10.696;2023-12-14T04:34:25;19.70;;;8.87;;
30571;SDS011;17348;50.948;10.696;2023-12-14T04:37:28;20.23;;;8.57;;
30571;SDS011;17348;50.948;10.696;2023-12-14T04:40:32;19.30;;;9.30;;
30571;SDS011;17348;50.948;10.696;2023-12-14T04:43:34;19.70;;;8.80;;
30571;SDS011;17348;50.948;10.696;2023-12-14T04:46:37;24.20;;;9.43;;
30571;SDS011;17348;50.948;10.696;2023-12-14T04:49:39;26.67;;;9.90;;
30571;SDS011;17348;50.948;10.696;2023-12-14T04:52:42;21.50;;;9.33;;
30571;SDS011;17348;50.948;10.696;2023-12-14T04:55:45;23.17;;;9.93;;
30571;SDS011;17348;50.948;10.696;2023-12-14T04:58:48;25.10;;;10.30;;
30571;SDS011;17348;50.948;10.696;2023-12-14T05:01:50;30.50;;;9.27;;
30571;SDS011;17348;50.948;10.696;2023-12-14T05:04:52;22.30;;;8.60;;
30571;SDS011;17348;50.948;10.696;2023-12-14T05:07:55;19.80;;;9.07;;
30571;SDS011;17348;50.948;10.696;2023-12-14T05:10:58;18.50;;;9.00;;
30571;SDS011;17348;50.948;10.696;2023-12-14T05:14:01;19.87;;;8.90;;
30571;SDS011;17348;50.948;10.696;2023-12-14T05:17:04;17.10;;;8.60;;
30571;SDS011;17348;50.948;10.696;2023-12-14T05:20:07;19.57;;;8.73;;
30571;SDS011;17348;50.948;10.696;2023-12-14T05:23:10;25.67;;;9.53;;
30571;SDS011;17348;50.948;10.696;2023-12-14T05:26:14;17.60;;;7.83;;
30571;SDS011;17348;50.948;10.696;2023-12-14T05:29:16;20.03;;;9.07;;
30571;SDS011;17348;50.948;10.696;2023-12-14T05:32:23;20.73;;;10.27;;
30571;SDS011;17348;50.948;10.696;2023-12-14T05:35:28;21.03;;;10.30;;
30571;SDS011;17348;50.948;10.696;2023-12-14T05:38:33;23.07;;;10.53;;
30571;SDS011;17348;50.948;10.696;2023-12-14T05:41:40;23.00;;;11.00;;
30571;SDS011;17348;50.948;10.696;2023-12-14T05:44:42;22.80;;;10.77;;
30571;SDS011;17348;50.948;10.696;2023-12-14T05:47:46;20.33;;;10.80;;
30571;SDS011;17348;50.948;10.696;2023-12-14T05:50:48;24.17;;;11.20;;
30571;SDS011;17348;50.948;10.696;2023-12-14T05:53:50;25.17;;;11.13;;
30571;SDS011;17348;50.948;10.696;2023-12-14T05:56:54;22.97;;;11.13;;
30571;SDS011;17348;50.948;10.696;2023-12-14T05:59:56;63.13;;;12.87;;
30571;SDS011;17348;50.948;10.696;2023-12-14T06:02:58;24.83;;;10.32;;
30571;SDS011;17348;50.948;10.696;2023-12-14T06:06:02;21.53;;;9.97;;
30571;SDS011;17348;50.948;10.696;2023-12-14T06:09:05;27.77;;;10.63;;
30571;SDS011;17348;50.948;10.696;2023-12-14T06:12:09;19.37;;;9.90;;
30571;SDS011;17348;50.948;10.696;2023-12-14T06:15:11;29.73;;;11.50;;
30571;SDS011;17348;50.948;10.696;2023-12-14T06:18:17;20.37;;;9.87;;
30571;SDS011;17348;50.948;10.696;2023-12-14T06:21:20;15.47;;;7.57;;
30571;SDS011;17348;50.948;10.696;2023-12-14T06:24:22;20.13;;;7.10;;
30571;SDS011;17348;50.948;10.696;2023-12-14T06:27:26;15.07;;;6.47;;
30571;SDS011;17348;50.948;10.696;2023-12-14T06:30:28;12.30;;;6.57;;
30571;SDS011;17348;50.948;10.696;2023-12-14T06:33:31;12.10;;;6.80;;
30571;SDS011;17348;50.948;10.696;2023-12-14T06:36:33;13.07;;;6.53;;
30571;SDS011;17348;50.948;10.696;2023-12-14T06:39:36;14.57;;;7.13;;
30571;SDS011;17348;50.948;10.696;2023-12-14T06:42:39;16.27;;;7.73;;
30571;SDS011;17348;50.948;10.696;2023-12-14T06:45:42;23.17;;;8.67;;
30571;SDS011;17348;50.948;10.696;2023-12-14T06:48:45;17.67;;;8.63;;
30571;SDS011;17348;50.948;10.696;2023-12-14T06:51:47;22.17;;;10.20;;
30571;SDS011;17348;50.948;10.696;2023-12-14T06:54:50;18.33;;;8.77;;
30571;SDS011;17348;50.948;10.696;2023-12-14T06:57:53;12.83;;;7.43;;
30571;SDS011;17348;50.948;10.696;2023-12-14T07:00:56;11.63;;;6.90;;
30571;SDS011;17348;50.948;10.696;2023-12-14T07:03:58;8.67;;;5.27;;
30571;SDS011;17348;50.948;10.696;2023-12-14T07:07:03;11.47;;;6.03;;
30571;SDS011;17348;50.948;10.696;2023-12-14T07:10:06;16.07;;;4.97;;
30571;SDS011;17348;50.948;10.696;2023-12-14T07:13:10;10.57;;;4.20;;
30571;SDS011;17348;50.948;10.696;2023-12-14T07:16:12;9.20;;;4.80;;
30571;SDS011;17348;50.948;10.696;2023-12-14T07:19:17;7.97;;;4.73;;
30571;SDS011;17348;50.948;10.696;2023-12-14T07:22:20;5.00;;;3.60;;
30571;SDS011;17348;50.948;10.696;2023-12-14T07:25:22;5.57;;;3.37;;
30571;SDS011;17348;50.948;10.696;2023-12-14T07:28:26;10.50;;;3.90;;
30571;SDS011;17348;50.948;10.696;2023-12-14T07:31:28;5.70;;;3.90;;
30571;SDS011;17348;50.948;10.696;2023-12-14T07:34:31;6.67;;;3.77;;
30571;SDS011;17348;50.948;10.696;2023-12-14T07:37:33;4.90;;;3.20;;
30571;SDS011;17348;50.948;10.696;2023-12-14T07:40:36;8.80;;;4.30;;
30571;SDS011;17348;50.948;10.696;2023-12-14T07:43:40;7.40;;;3.93;;
30571;SDS011;17348;50.948;10.696;2023-12-14T07:46:42;5.70;;;3.70;;
30571;SDS011;17348;50.948;10.696;2023-12-14T07:49:47;6.07;;;3.80;;
30571;SDS011;17348;50.948;10.696;2023-12-14T07:52:50;9.03;;;3.53;;
30571;SDS011;17348;50.948;10.696;2023-12-14T07:55:53;7.13;;;3.30;;
30571;SDS011;17348;50.948;10.696;2023-12-14T07:58:56;8.17;;;3.50;;
30571;SDS011;17348;50.948;10.696;2023-12-14T08:01:59;6.30;;;3.57;;
30571;SDS011;17348;50.948;10.696;2023-12-14T08:05:01;7.60;;;4.43;;
30571;SDS011;17348;50.948;10.696;2023-12-14T08:08:04;7.43;;;3.87;;
30571;SDS011;17348;50.948;10.696;2023-12-14T08:11:06;4.87;;;3.33;;
30571;SDS011;17348;50.948;10.696;2023-12-14T08:14:10;5.37;;;3.43;;
30571;SDS011;17348;50.948;10.696;2023-12-14T08:17:12;9.30;;;4.00;;
30571;SDS011;17348;50.948;10.696;2023-12-14T08:20:14;6.10;;;3.33;;
30571;SDS011;17348;50.948;10.696;2023-12-14T08:23:17;13.23;;;4.00;;
30571;SDS011;17348;50.948;10.696;2023-12-14T08:26:21;6.37;;;3.63;;
30571;SDS011;17348;50.948;10.696;2023-12-14T08:29:25;4.83;;;3.03;;
30571;SDS011;17348;50.948;10.696;2023-12-14T08:32:27;4.40;;;2.63;;
30571;SDS011;17348;50.948;10.696;2023-12-14T08:35:30;8.40;;;3.50;;
30571;SDS011;17348;50.948;10.696;2023-12-14T08:38:34;7.67;;;3.80;;
30571;SDS011;17348;50.948;10.696;2023-12-14T08:41:36;7.83;;;3.67;;
30571;SDS011;17348;50.948;10.696;2023-12-14T08:44:40;7.77;;;4.07;;
30571;SDS011;17348;50.948;10.696;2023-12-14T08:47:43;6.93;;;4.17;;
30571;SDS011;17348;50.948;10.696;2023-12-14T08:50:45;9.00;;;3.10;;
30571;SDS011;17348;50.948;10.696;2023-12-14T08:53:47;7.60;;;2.90;;
30571;SDS011;17348;50.948;10.696;2023-12-14T08:56:49;7.87;;;3.30;;
30571;SDS011;17348;50.948;10.696;2023-12-14T08:59:54;5.87;;;3.00;;
30571;SDS011;17348;50.948;10.696;2023-12-14T09:02:56;4.67;;;3.00;;
30571;SDS011;17348;50.948;10.696;2023-12-14T09:05:58;4.83;;;3.03;;
30571;SDS011;17348;50.948;10.696;2023-12-14T09:09:06;3.50;;;2.63;;
30571;SDS011;17348;50.948;10.696;2023-12-14T09:12:08;3.97;;;2.63;;
30571;SDS011;17348;50.948;10.696;2023-12-14T09:15:12;5.97;;;3.33;;
30571;SDS011;17348;50.948;10.696;2023-12-14T09:18:16;5.80;;;3.40;;
30571;SDS011;17348;50.948;10.696;2023-12-14T09:21:18;7.50;;;3.50;;
30571;SDS011;17348;50.948;10.696;2023-12-14T09:24:21;5.10;;;3.30;;
30571;SDS011;17348;50.948;10.696;2023-12-14T09:27:23;7.13;;;3.73;;
30571;SDS011;17348;50.948;10.696;2023-12-14T09:30:27;4.77;;;3.37;;
30571;SDS011;17348;50.948;10.696;2023-12-14T09:33:29;7.83;;;3.83;;
30571;SDS011;17348;50.948;10.696;2023-12-14T09:36:31;8.63;;;3.97;;
30571;SDS011;17348;50.948;10.696;2023-12-14T09:39:36;5.90;;;3.40;;
30571;SDS011;17348;50.948;10.696;2023-12-14T09:42:38;6.00;;;3.33;;
30571;SDS011;17348;50.948;10.696;2023-12-14T09:45:42;5.47;;;2.97;;
30571;SDS011;17348;50.948;10.696;2023-12-14T09:48:45;4.93;;;3.03;;
30571;SDS011;17348;50.948;10.696;2023-12-14T09:51:48;5.80;;;3.80;;
30571;SDS011;17348;50.948;10.696;2023-12-14T09:54:52;6.07;;;3.43;;
30571;SDS011;17348;50.948;10.696;2023-12-14T09:57:55;5.10;;;3.73;;
30571;SDS011;17348;50.948;10.696;2023-12-14T10:00:58;8.23;;;3.73;;
30571;SDS011;17348;50.948;10.696;2023-12-14T10:04:06;5.93;;;3.67;;
30571;SDS011;17348;50.948;10.696;2023-12-14T10:07:11;7.27;;;4.03;;
30571;SDS011;17348;50.948;10.696;2023-12-14T10:10:13;6.00;;;3.60;;
30571;SDS011;17348;50.948;10.696;2023-12-14T10:13:16;6.97;;;3.97;;
30571;SDS011;17348;50.948;10.696;2023-12-14T10:16:29;8.47;;;3.57;;
30571;SDS011;17348;50.948;10.696;2023-12-14T10:19:32;4.80;;;3.10;;
30571;SDS011;17348;50.948;10.696;2023-12-14T10:22:35;3.67;;;2.10;;
30571;SDS011;17348;50.948;10.696;2023-12-14T10:25:38;3.73;;;2.53;;
30571;SDS011;17348;50.948;10.696;2023-12-14T10:28:40;4.70;;;2.87;;
30571;SDS011;17348;50.948;10.696;2023-12-14T10:31:47;4.17;;;2.67;;
30571;SDS011;17348;50.948;10.696;2023-12-14T10:34:50;3.67;;;2.30;;
30571;SDS011;17348;50.948;10.696;2023-12-14T10:37:52;7.17;;;3.17;;
30571;SDS011;17348;50.948;10.696;2023-12-14T10:40:57;5.50;;;2.67;;
30571;SDS011;17348;50.948;10.696;2023-12-14T10:44:00;3.93;;;2.10;;
30571;SDS011;17348;50.948;10.696;2023-12-14T10:47:04;4.37;;;2.30;;
30571;SDS011;17348;50.948;10.696;2023-12-14T10:50:09;2.03;;;1.50;;
30571;SDS011;17348;50.948;10.696;2023-12-14T10:53:12;3.67;;;1.83;;
30571;SDS011;17348;50.948;10.696;2023-12-14T10:56:16;3.13;;;1.97;;
30571;SDS011;17348;50.948;10.696;2023-12-14T10:59:18;3.80;;;2.40;;
30571;SDS011;17348;50.948;10.696;2023-12-14T11:02:22;3.17;;;1.93;;
30571;SDS011;17348;50.948;10.696;2023-12-14T11:05:26;3.13;;;1.80;;
30571;SDS011;17348;50.948;10.696;2023-12-14T11:08:30;2.83;;;1.53;;
30571;SDS011;17348;50.948;10.696;2023-12-14T11:11:40;6.90;;;2.37;;
30571;SDS011;17348;50.948;10.696;2023-12-14T11:14:46;2.23;;;1.43;;
30571;SDS011;17348;50.948;10.696;2023-12-14T11:21:25;4.20;;;2.13;;
30571;SDS011;17348;50.948;10.696;2023-12-14T11:24:27;2.97;;;2.07;;
30571;SDS011;17348;50.948;10.696;2023-12-14T11:27:30;2.70;;;1.63;;
30571;SDS011;17348;50.948;10.696;2023-12-14T11:30:32;2.80;;;1.90;;
30571;SDS011;17348;50.948;10.696;2023-12-14T11:33:37;4.20;;;2.10;;
30571;SDS011;17348;50.948;10.696;2023-12-14T11:36:40;4.10;;;1.83;;
30571;SDS011;17348;50.948;10.696;2023-12-14T11:39:42;4.03;;;1.80;;
30571;SDS011;17348;50.948;10.696;2023-12-14T11:42:44;3.50;;;2.10;;
30571;SDS011;17348;50.948;10.696;2023-12-14T11:45:47;5.27;;;2.30;;
30571;SDS011;17348;50.948;10.696;2023-12-14T11:48:51;5.30;;;2.47;;
30571;SDS011;17348;50.948;10.696;2023-12-14T11:51:54;2.73;;;2.20;;
30571;SDS011;17348;50.948;10.696;2023-12-14T11:54:57;4.13;;;2.33;;
30571;SDS011;17348;50.948;10.696;2023-12-14T11:57:59;4.43;;;2.80;;
30571;SDS011;17348;50.948;10.696;2023-12-14T12:01:11;3.97;;;2.40;;
30571;SDS011;17348;50.948;10.696;2023-12-14T12:04:16;4.93;;;2.93;;
30571;SDS011;17348;50.948;10.696;2023-12-14T12:07:19;3.20;;;2.50;;
30571;SDS011;17348;50.948;10.696;2023-12-14T12:10:23;4.80;;;2.80;;
30571;SDS011;17348;50.948;10.696;2023-12-14T12:13:25;3.87;;;2.73;;
30571;SDS011;17348;50.948;10.696;2023-12-14T12:16:27;4.33;;;2.43;;
30571;SDS011;17348;50.948;10.696;2023-12-14T12:19:31;3.43;;;2.40;;
30571;SDS011;17348;50.948;10.696;2023-12-14T12:22:34;4.87;;;3.03;;
30571;SDS011;17348;50.948;10.696;2023-12-14T12:25:37;3.87;;;2.77;;
30571;SDS011;17348;50.948;10.696;2023-12-14T12:28:39;4.00;;;2.53;;
30571;SDS011;17348;50.948;10.696;2023-12-14T12:31:42;2.80;;;1.77;;
30571;SDS011;17348;50.948;10.696;2023-12-14T12:34:46;4.70;;;2.73;;
30571;SDS011;17348;50.948;10.696;2023-12-14T12:37:49;3.77;;;2.00;;
30571;SDS011;17348;50.948;10.696;2023-12-14T12:40:54;4.43;;;2.73;;
30571;SDS011;17348;50.948;10.696;2023-12-14T12:43:56;3.77;;;1.90;;
30571;SDS011;17348;50.948;10.696;2023-12-14T12:46:59;2.40;;;1.87;;
30571;SDS011;17348;50.948;10.696;2023-12-14T12:50:03;2.87;;;1.70;;
30571;SDS011;17348;50.948;10.696;2023-12-14T12:53:06;3.63;;;1.77;;
30571;SDS011;17348;50.948;10.696;2023-12-14T12:56:09;3.30;;;1.80;;
30571;SDS011;17348;50.948;10.696;2023-12-14T12:59:11;2.30;;;1.23;;
30571;SDS011;17348;50.948;10.696;2023-12-14T13:02:15;1.93;;;1.43;;
30571;SDS011;17348;50.948;10.696;2023-12-14T13:05:19;1.87;;;1.30;;
30571;SDS011;17348;50.948;10.696;2023-12-14T13:08:23;6.70;;;1.47;;
30571;SDS011;17348;50.948;10.696;2023-12-14T13:11:25;3.07;;;1.47;;
30571;SDS011;17348;50.948;10.696;2023-12-14T13:14:28;5.50;;;1.80;;
30571;SDS011;17348;50.948;10.696;2023-12-14T13:17:33;3.20;;;1.67;;
30571;SDS011;17348;50.948;10.696;2023-12-14T13:20:37;3.37;;;1.90;;
30571;SDS011;17348;50.948;10.696;2023-12-14T13:23:39;3.07;;;1.77;;
30571;SDS011;17348;50.948;10.696;2023-12-14T13:26:42;3.97;;;1.70;;
30571;SDS011;17348;50.948;10.696;2023-12-14T13:29:44;3.23;;;1.80;;
30571;SDS011;17348;50.948;10.696;2023-12-14T13:32:47;6.10;;;2.53;;
30571;SDS011;17348;50.948;10.696;2023-12-14T13:35:50;5.10;;;2.80;;
30571;SDS011;17348;50.948;10.696;2023-12-14T13:38:53;5.40;;;2.93;;
30571;SDS011;17348;50.948;10.696;2023-12-14T13:41:57;5.40;;;3.27;;
30571;SDS011;17348;50.948;10.696;2023-12-14T13:45:00;6.87;;;3.47;;
30571;SDS011;17348;50.948;10.696;2023-12-14T13:48:02;17.87;;;10.57;;
30571;SDS011;17348;50.948;10.696;2023-12-14T13:51:07;6.60;;;4.20;;
30571;SDS011;17348;50.948;10.696;2023-12-14T13:54:09;8.00;;;4.60;;
30571;SDS011;17348;50.948;10.696;2023-12-14T13:57:11;7.57;;;4.10;;
30571;SDS011;17348;50.948;10.696;2023-12-14T14:00:14;7.40;;;3.97;;
30571;SDS011;17348;50.948;10.696;2023-12-14T14:03:19;9.67;;;5.73;;
30571;SDS011;17348;50.948;10.696;2023-12-14T14:06:23;9.53;;;5.43;;
30571;SDS011;17348;50.948;10.696;2023-12-14T14:09:25;7.57;;;4.57;;
30571;SDS011;17348;50.948;10.696;2023-12-14T14:12:27;8.43;;;4.93;;
30571;SDS011;17348;50.948;10.696;2023-12-14T14:15:30;8.73;;;4.57;;
30571;SDS011;17348;50.948;10.696;2023-12-14T14:18:32;8.90;;;4.70;;
30571;SDS011;17348;50.948;10.696;2023-12-14T14:21:36;9.10;;;5.10;;
30571;SDS011;17348;50.948;10.696;2023-12-14T14:24:38;9.13;;;5.43;;
30571;SDS011;17348;50.948;10.696;2023-12-14T14:27:40;10.33;;;5.27;;
30571;SDS011;17348;50.948;10.696;2023-12-14T14:30:43;7.47;;;3.67;;
30571;SDS011;17348;50.948;10.696;2023-12-14T14:33:45;7.73;;;3.97;;
30571;SDS011;17348;50.948;10.696;2023-12-14T14:36:50;10.00;;;4.67;;
30571;SDS011;17348;50.948;10.696;2023-12-14T14:39:52;7.30;;;4.27;;
30571;SDS011;17348;50.948;10.696;2023-12-14T14:42:55;5.33;;;3.60;;
30571;SDS011;17348;50.948;10.696;2023-12-14T14:45:57;6.83;;;4.00;;
30571;SDS011;17348;50.948;10.696;2023-12-14T14:49:00;8.97;;;3.60;;
30571;SDS011;17348;50.948;10.696;2023-12-14T14:52:07;7.20;;;4.10;;
30571;SDS011;17348;50.948;10.696;2023-12-14T14:55:09;6.37;;;3.77;;
30571;SDS011;17348;50.948;10.696;2023-12-14T14:58:11;8.33;;;4.27;;
30571;SDS011;17348;50.948;10.696;2023-12-14T15:01:14;6.73;;;4.17;;
30571;SDS011;17348;50.948;10.696;2023-12-14T15:04:16;8.90;;;3.87;;
30571;SDS011;17348;50.948;10.696;2023-12-14T15:07:21;9.37;;;4.33;;
30571;SDS011;17348;50.948;10.696;2023-12-14T15:10:24;6.23;;;4.20;;
30571;SDS011;17348;50.948;10.696;2023-12-14T15:13:26;8.43;;;4.60;;
30571;SDS011;17348;50.948;10.696;2023-12-14T15:16:30;7.63;;;3.70;;
30571;SDS011;17348;50.948;10.696;2023-12-14T15:19:32;6.67;;;3.80;;
30571;SDS011;17348;50.948;10.696;2023-12-14T15:22:36;10.53;;;5.27;;
30571;SDS011;17348;50.948;10.696;2023-12-14T15:25:38;9.20;;;5.20;;
30571;SDS011;17348;50.948;10.696;2023-12-14T15:28:41;9.20;;;4.87;;
30571;SDS011;17348;50.948;10.696;2023-12-14T15:31:43;9.90;;;5.67;;
30571;SDS011;17348;50.948;10.696;2023-12-14T15:34:45;11.07;;;6.17;;
30571;SDS011;17348;50.948;10.696;2023-12-14T15:37:51;11.37;;;5.87;;
30571;SDS011;17348;50.948;10.696;2023-12-14T15:40:53;8.90;;;5.33;;
30571;SDS011;17348;50.948;10.696;2023-12-14T15:43:55;9.57;;;4.83;;
30571;SDS011;17348;50.948;10.696;2023-12-14T15:46:58;9.27;;;5.50;;
30571;SDS011;17348;50.948;10.696;2023-12-14T15:50:00;8.77;;;4.07;;
30571;SDS011;17348;50.948;10.696;2023-12-14T15:53:04;6.97;;;4.20;;
30571;SDS011;17348;50.948;10.696;2023-12-14T15:56:09;7.57;;;4.23;;
30571;SDS011;17348;50.948;10.696;2023-12-14T15:59:11;6.67;;;4.17;;
30571;SDS011;17348;50.948;10.696;2023-12-14T16:02:14;7.17;;;4.57;;
30571;SDS011;17348;50.948;10.696;2023-12-14T16:05:16;7.37;;;4.47;;
30571;SDS011;17348;50.948;10.696;2023-12-14T16:08:20;7.30;;;4.17;;
30571;SDS011;17348;50.948;10.696;2023-12-14T16:11:22;9.70;;;4.67;;
30571;SDS011;17348;50.948;10.696;2023-12-14T16:14:24;23.10;;;4.90;;
30571;SDS011;17348;50.948;10.696;2023-12-14T16:17:27;10.83;;;5.73;;
30571;SDS011;17348;50.948;10.696;2023-12-14T16:20:29;11.03;;;5.37;;
30571;SDS011;17348;50.948;10.696;2023-12-14T16:23:33;11.87;;;5.60;;
30571;SDS011;17348;50.948;10.696;2023-12-14T16:26:35;11.30;;;6.07;;
30571;SDS011;17348;50.948;10.696;2023-12-14T16:29:40;9.40;;;5.57;;
30571;SDS011;17348;50.948;10.696;2023-12-14T16:32:42;9.33;;;5.57;;
30571;SDS011;17348;50.948;10.696;2023-12-14T16:35:44;10.03;;;5.80;;
30571;SDS011;17348;50.948;10.696;2023-12-14T16:38:48;10.97;;;5.90;;
30571;SDS011;17348;50.948;10.696;2023-12-14T16:41:50;10.87;;;5.50;;
30571;SDS011;17348;50.948;10.696;2023-12-14T16:44:52;11.40;;;6.23;;
30571;SDS011;17348;50.948;10.696;2023-12-14T16:47:55;11.13;;;5.00;;
30571;SDS011;17348;50.948;10.696;2023-12-14T16:50:57;12.63;;;5.97;;
30571;SDS011;17348;50.948;10.696;2023-12-14T16:54:01;10.17;;;5.10;;
30571;SDS011;17348;50.948;10.696;2023-12-14T16:57:03;8.97;;;5.43;;
30571;SDS011;17348;50.948;10.696;2023-12-14T17:00:06;12.27;;;6.17;;
30571;SDS011;17348;50.948;10.696;2023-12-14T17:03:09;28.93;;;9.97;;
30571;SDS011;17348;50.948;10.696;2023-12-14T17:06:15;62.43;;;21.27;;
30571;SDS011;17348;50.948;10.696;2023-12-14T17:09:19;11.70;;;6.03;;
30571;SDS011;17348;50.948;10.696;2023-12-14T17:12:23;31.70;;;9.47;;
30571;SDS011;17348;50.948;10.696;2023-12-14T17:15:25;13.30;;;6.00;;
30571;SDS011;17348;50.948;10.696;2023-12-14T17:18:28;27.90;;;11.13;;
30571;SDS011;17348;50.948;10.696;2023-12-14T17:21:30;12.37;;;6.23;;
30571;SDS011;17348;50.948;10.696;2023-12-14T17:24:34;9.80;;;5.93;;
30571;SDS011;17348;50.948;10.696;2023-12-14T17:27:38;11.13;;;5.83;;
30571;SDS011;17348;50.948;10.696;2023-12-14T17:30:40;11.20;;;6.73;;
30571;SDS011;17348;50.948;10.696;2023-12-14T17:33:42;13.87;;;6.87;;
30571;SDS011;17348;50.948;10.696;2023-12-14T17:36:45;10.87;;;6.27;;
30571;SDS011;17348;50.948;10.696;2023-12-14T17:39:49;10.17;;;6.27;;
30571;SDS011;17348;50.948;10.696;2023-12-14T17:42:51;12.23;;;6.20;;
30571;SDS011;17348;50.948;10.696;2023-12-14T17:45:53;9.77;;;5.87;;
30571;SDS011;17348;50.948;10.696;2023-12-14T17:48:55;11.37;;;6.20;;
30571;SDS011;17348;50.948;10.696;2023-12-14T17:51:59;11.43;;;6.70;;
30571;SDS011;17348;50.948;10.696;2023-12-14T17:55:03;11.03;;;6.30;;
30571;SDS011;17348;50.948;10.696;2023-12-14T17:58:06;11.80;;;6.87;;
30571;SDS011;17348;50.948;10.696;2023-12-14T18:01:08;13.07;;;7.40;;